sensor_id;sensor_type;location;lat;lon;timestamp;P1;durP1;ratioP1;P2;durP2;ratioP2
31966;SDS011;18496;52.042;6.812;2024-02-21T00:01:15;37.40;;;12.45;;
31966;SDS011;18496;52.042;6.812;2024-02-21T00:03:19;30.83;;;12.40;;
31966;SDS011;18496;52.042;6.812;2024-02-21T00:05:23;25.90;;;11.07;;
31966;SDS011;18496;52.042;6.812;2024-02-21T00:07:27;29.35;;;12.50;;
31966;SDS011;18496;52.042;6.812;2024-02-21T00:09:31;27.00;;;11.88;;
31966;SDS011;18496;52.042;6.812;2024-02-21T00:11:34;34.20;;;11.40;;
31966;SDS011;18496;52.042;6.812;2024-02-21T00:13:42;30.95;;;12.25;;
31966;SDS011;18496;52.042;6.812;2024-02-21T00:15:46;32.42;;;12.18;;
31966;SDS011;18496;52.042;6.812;2024-02-21T00:17:50;34.70;;;11.70;;
31966;SDS011;18496;52.042;6.812;2024-02-21T00:19:53;28.38;;;11.80;;
31966;SDS011;18496;52.042;6.812;2024-02-21T00:21:57;31.25;;;12.52;;
31966;SDS011;18496;52.042;6.812;2024-02-21T00:24:01;32.25;;;12.88;;
31966;SDS011;18496;52.042;6.812;2024-02-21T00:26:05;32.10;;;12.73;;
31966;SDS011;18496;52.042;6.812;2024-02-21T00:28:09;39.08;;;13.32;;
31966;SDS011;18496;52.042;6.812;2024-02-21T00:30:13;32.00;;;12.00;;
31966;SDS011;18496;52.042;6.812;2024-02-21T00:32:16;33.13;;;11.70;;
31966;SDS011;18496;52.042;6.812;2024-02-21T00:34:20;34.22;;;12.70;;
31966;SDS011;18496;52.042;6.812;2024-02-21T00:36:24;28.63;;;11.50;;
31966;SDS011;18496;52.042;6.812;2024-02-21T00:38:27;40.08;;;12.82;;
31966;SDS011;18496;52.042;6.812;2024-02-21T00:40:32;43.95;;;12.05;;
31966;SDS011;18496;52.042;6.812;2024-02-21T00:42:35;31.60;;;11.60;;
31966;SDS011;18496;52.042;6.812;2024-02-21T00:44:39;32.35;;;12.60;;
31966;SDS011;18496;52.042;6.812;2024-02-21T00:46:43;33.45;;;11.30;;
31966;SDS011;18496;52.042;6.812;2024-02-21T00:48:47;31.48;;;11.95;;
31966;SDS011;18496;52.042;6.812;2024-02-21T00:50:50;32.80;;;11.90;;
31966;SDS011;18496;52.042;6.812;2024-02-21T00:52:55;40.10;;;12.82;;
31966;SDS011;18496;52.042;6.812;2024-02-21T00:54:58;30.42;;;11.18;;
31966;SDS011;18496;52.042;6.812;2024-02-21T00:57:02;36.90;;;11.88;;
31966;SDS011;18496;52.042;6.812;2024-02-21T00:59:06;39.20;;;13.57;;
31966;SDS011;18496;52.042;6.812;2024-02-21T01:01:10;42.28;;;13.77;;
31966;SDS011;18496;52.042;6.812;2024-02-21T01:03:14;32.20;;;12.13;;
31966;SDS011;18496;52.042;6.812;2024-02-21T01:05:17;35.47;;;11.73;;
31966;SDS011;18496;52.042;6.812;2024-02-21T01:07:22;34.05;;;12.23;;
31966;SDS011;18496;52.042;6.812;2024-02-21T01:09:25;33.47;;;12.15;;
31966;SDS011;18496;52.042;6.812;2024-02-21T01:11:29;36.13;;;12.18;;
31966;SDS011;18496;52.042;6.812;2024-02-21T01:13:33;33.28;;;12.13;;
31966;SDS011;18496;52.042;6.812;2024-02-21T01:15:36;36.47;;;12.75;;
31966;SDS011;18496;52.042;6.812;2024-02-21T01:17:40;33.92;;;12.63;;
31966;SDS011;18496;52.042;6.812;2024-02-21T01:19:45;39.85;;;12.15;;
31966;SDS011;18496;52.042;6.812;2024-02-21T01:21:49;27.85;;;11.93;;
31966;SDS011;18496;52.042;6.812;2024-02-21T01:23:53;31.98;;;12.52;;
31966;SDS011;18496;52.042;6.812;2024-02-21T01:25:57;36.95;;;11.93;;
31966;SDS011;18496;52.042;6.812;2024-02-21T01:28:00;35.50;;;12.55;;
31966;SDS011;18496;52.042;6.812;2024-02-21T01:30:05;34.28;;;11.93;;
31966;SDS011;18496;52.042;6.812;2024-02-21T01:32:09;36.70;;;12.80;;
31966;SDS011;18496;52.042;6.812;2024-02-21T01:34:13;35.50;;;12.65;;
31966;SDS011;18496;52.042;6.812;2024-02-21T01:36:17;33.38;;;11.90;;
31966;SDS011;18496;52.042;6.812;2024-02-21T01:38:21;34.85;;;11.93;;
31966;SDS011;18496;52.042;6.812;2024-02-21T01:40:25;29.95;;;11.52;;
31966;SDS011;18496;52.042;6.812;2024-02-21T01:42:28;25.75;;;11.10;;
31966;SDS011;18496;52.042;6.812;2024-02-21T01:44:32;28.48;;;11.25;;
31966;SDS011;18496;52.042;6.812;2024-02-21T01:46:36;34.83;;;13.07;;
31966;SDS011;18496;52.042;6.812;2024-02-21T01:48:40;33.13;;;11.93;;
31966;SDS011;18496;52.042;6.812;2024-02-21T01:50:47;27.45;;;10.95;;
31966;SDS011;18496;52.042;6.812;2024-02-21T01:52:52;28.33;;;11.60;;
31966;SDS011;18496;52.042;6.812;2024-02-21T01:54:57;25.63;;;11.77;;
31966;SDS011;18496;52.042;6.812;2024-02-21T01:57:01;30.35;;;11.18;;
31966;SDS011;18496;52.042;6.812;2024-02-21T01:59:06;34.17;;;11.95;;
31966;SDS011;18496;52.042;6.812;2024-02-21T02:01:10;29.80;;;10.30;;
31966;SDS011;18496;52.042;6.812;2024-02-21T02:03:14;29.85;;;11.68;;
31966;SDS011;18496;52.042;6.812;2024-02-21T02:05:19;38.45;;;11.85;;
31966;SDS011;18496;52.042;6.812;2024-02-21T02:07:24;33.65;;;11.65;;
31966;SDS011;18496;52.042;6.812;2024-02-21T02:09:28;28.85;;;11.70;;
31966;SDS011;18496;52.042;6.812;2024-02-21T02:11:31;30.05;;;11.43;;
31966;SDS011;18496;52.042;6.812;2024-02-21T02:13:36;38.95;;;11.60;;
31966;SDS011;18496;52.042;6.812;2024-02-21T02:15:46;31.65;;;10.70;;
31966;SDS011;18496;52.042;6.812;2024-02-21T02:17:51;35.13;;;11.27;;
31966;SDS011;18496;52.042;6.812;2024-02-21T02:19:55;34.63;;;11.52;;
31966;SDS011;18496;52.042;6.812;2024-02-21T02:22:00;26.90;;;11.55;;
31966;SDS011;18496;52.042;6.812;2024-02-21T02:24:13;25.45;;;11.40;;
31966;SDS011;18496;52.042;6.812;2024-02-21T02:26:17;32.15;;;11.40;;
31966;SDS011;18496;52.042;6.812;2024-02-21T02:28:21;27.05;;;11.15;;
31966;SDS011;18496;52.042;6.812;2024-02-21T02:30:25;28.70;;;10.55;;
31966;SDS011;18496;52.042;6.812;2024-02-21T02:32:28;33.20;;;10.85;;
31966;SDS011;18496;52.042;6.812;2024-02-21T02:34:32;26.88;;;10.90;;
31966;SDS011;18496;52.042;6.812;2024-02-21T02:36:36;24.92;;;10.75;;
31966;SDS011;18496;52.042;6.812;2024-02-21T02:38:39;25.92;;;11.27;;
31966;SDS011;18496;52.042;6.812;2024-02-21T02:40:43;31.02;;;10.60;;
31966;SDS011;18496;52.042;6.812;2024-02-21T02:42:47;30.17;;;10.77;;
31966;SDS011;18496;52.042;6.812;2024-02-21T02:44:52;31.60;;;11.40;;
31966;SDS011;18496;52.042;6.812;2024-02-21T02:46:55;36.60;;;12.02;;
31966;SDS011;18496;52.042;6.812;2024-02-21T02:48:59;25.17;;;10.18;;
31966;SDS011;18496;52.042;6.812;2024-02-21T02:51:03;27.77;;;11.00;;
31966;SDS011;18496;52.042;6.812;2024-02-21T02:53:06;27.63;;;9.95;;
31966;SDS011;18496;52.042;6.812;2024-02-21T02:55:10;25.58;;;9.95;;
31966;SDS011;18496;52.042;6.812;2024-02-21T02:57:15;37.63;;;10.63;;
31966;SDS011;18496;52.042;6.812;2024-02-21T02:59:18;29.75;;;9.98;;
31966;SDS011;18496;52.042;6.812;2024-02-21T03:01:22;28.35;;;10.02;;
31966;SDS011;18496;52.042;6.812;2024-02-21T03:03:25;32.72;;;11.32;;
31966;SDS011;18496;52.042;6.812;2024-02-21T03:05:29;30.80;;;11.07;;
31966;SDS011;18496;52.042;6.812;2024-02-21T03:07:33;25.92;;;9.98;;
31966;SDS011;18496;52.042;6.812;2024-02-21T03:09:37;24.75;;;11.27;;
31966;SDS011;18496;52.042;6.812;2024-02-21T03:11:41;27.83;;;10.52;;
31966;SDS011;18496;52.042;6.812;2024-02-21T03:13:47;26.13;;;11.15;;
31966;SDS011;18496;52.042;6.812;2024-02-21T03:15:50;34.22;;;11.23;;
31966;SDS011;18496;52.042;6.812;2024-02-21T03:17:54;33.67;;;10.93;;
31966;SDS011;18496;52.042;6.812;2024-02-21T03:19:58;31.05;;;11.73;;
31966;SDS011;18496;52.042;6.812;2024-02-21T03:22:04;27.95;;;10.45;;
31966;SDS011;18496;52.042;6.812;2024-02-21T03:24:09;32.15;;;10.05;;
31966;SDS011;18496;52.042;6.812;2024-02-21T03:26:12;30.88;;;10.93;;
31966;SDS011;18496;52.042;6.812;2024-02-21T03:28:20;34.25;;;10.32;;
31966;SDS011;18496;52.042;6.812;2024-02-21T03:30:23;25.35;;;10.73;;
31966;SDS011;18496;52.042;6.812;2024-02-21T03:32:27;35.55;;;10.80;;
31966;SDS011;18496;52.042;6.812;2024-02-21T03:34:33;36.78;;;10.23;;
31966;SDS011;18496;52.042;6.812;2024-02-21T03:36:37;30.50;;;10.82;;
31966;SDS011;18496;52.042;6.812;2024-02-21T03:38:41;26.77;;;10.70;;
31966;SDS011;18496;52.042;6.812;2024-02-21T03:40:45;24.13;;;10.75;;
31966;SDS011;18496;52.042;6.812;2024-02-21T03:42:49;30.63;;;11.35;;
31966;SDS011;18496;52.042;6.812;2024-02-21T03:44:53;34.08;;;10.57;;
31966;SDS011;18496;52.042;6.812;2024-02-21T03:46:56;22.83;;;9.90;;
31966;SDS011;18496;52.042;6.812;2024-02-21T03:49:01;29.38;;;11.20;;
31966;SDS011;18496;52.042;6.812;2024-02-21T03:51:05;37.72;;;10.95;;
31966;SDS011;18496;52.042;6.812;2024-02-21T03:53:09;24.77;;;9.57;;
31966;SDS011;18496;52.042;6.812;2024-02-21T03:55:13;27.60;;;10.02;;
31966;SDS011;18496;52.042;6.812;2024-02-21T03:57:16;22.90;;;9.20;;
31966;SDS011;18496;52.042;6.812;2024-02-21T03:59:20;29.90;;;9.38;;
31966;SDS011;18496;52.042;6.812;2024-02-21T04:01:25;31.75;;;10.45;;
31966;SDS011;18496;52.042;6.812;2024-02-21T04:03:30;30.00;;;9.70;;
31966;SDS011;18496;52.042;6.812;2024-02-21T04:05:34;29.13;;;9.32;;
31966;SDS011;18496;52.042;6.812;2024-02-21T04:07:37;26.77;;;9.93;;
31966;SDS011;18496;52.042;6.812;2024-02-21T04:09:41;26.90;;;9.20;;
31966;SDS011;18496;52.042;6.812;2024-02-21T04:11:45;32.92;;;10.85;;
31966;SDS011;18496;52.042;6.812;2024-02-21T04:13:49;24.13;;;9.32;;
31966;SDS011;18496;52.042;6.812;2024-02-21T04:15:53;29.90;;;9.18;;
31966;SDS011;18496;52.042;6.812;2024-02-21T04:17:57;25.25;;;8.88;;
31966;SDS011;18496;52.042;6.812;2024-02-21T04:20:02;32.72;;;10.38;;
31966;SDS011;18496;52.042;6.812;2024-02-21T04:22:11;28.25;;;8.68;;
31966;SDS011;18496;52.042;6.812;2024-02-21T04:24:15;26.92;;;8.65;;
31966;SDS011;18496;52.042;6.812;2024-02-21T04:26:18;25.58;;;9.10;;
31966;SDS011;18496;52.042;6.812;2024-02-21T04:28:22;20.20;;;8.27;;
31966;SDS011;18496;52.042;6.812;2024-02-21T04:30:26;27.15;;;8.57;;
31966;SDS011;18496;52.042;6.812;2024-02-21T04:32:29;19.67;;;8.45;;
31966;SDS011;18496;52.042;6.812;2024-02-21T04:34:33;20.10;;;8.05;;
31966;SDS011;18496;52.042;6.812;2024-02-21T04:36:38;22.33;;;8.32;;
31966;SDS011;18496;52.042;6.812;2024-02-21T04:38:41;26.20;;;7.85;;
31966;SDS011;18496;52.042;6.812;2024-02-21T04:40:45;23.83;;;7.78;;
31966;SDS011;18496;52.042;6.812;2024-02-21T04:42:48;28.95;;;8.30;;
31966;SDS011;18496;52.042;6.812;2024-02-21T04:44:52;22.75;;;8.98;;
31966;SDS011;18496;52.042;6.812;2024-02-21T04:46:56;25.13;;;8.45;;
31966;SDS011;18496;52.042;6.812;2024-02-21T04:49:00;25.67;;;9.27;;
31966;SDS011;18496;52.042;6.812;2024-02-21T04:51:03;20.95;;;8.95;;
31966;SDS011;18496;52.042;6.812;2024-02-21T04:53:07;23.45;;;8.50;;
31966;SDS011;18496;52.042;6.812;2024-02-21T04:55:11;22.20;;;7.93;;
31966;SDS011;18496;52.042;6.812;2024-02-21T04:57:15;27.25;;;8.52;;
31966;SDS011;18496;52.042;6.812;2024-02-21T04:59:20;21.23;;;7.88;;
31966;SDS011;18496;52.042;6.812;2024-02-21T05:01:23;25.15;;;8.23;;
31966;SDS011;18496;52.042;6.812;2024-02-21T05:03:27;22.83;;;8.10;;
31966;SDS011;18496;52.042;6.812;2024-02-21T05:05:31;22.75;;;8.07;;
31966;SDS011;18496;52.042;6.812;2024-02-21T05:07:34;19.38;;;8.27;;
31966;SDS011;18496;52.042;6.812;2024-02-21T05:09:38;27.75;;;8.20;;
31966;SDS011;18496;52.042;6.812;2024-02-21T05:11:42;24.90;;;8.20;;
31966;SDS011;18496;52.042;6.812;2024-02-21T05:13:46;20.30;;;8.48;;
31966;SDS011;18496;52.042;6.812;2024-02-21T05:15:49;25.10;;;7.80;;
31966;SDS011;18496;52.042;6.812;2024-02-21T05:17:53;26.17;;;9.30;;
31966;SDS011;18496;52.042;6.812;2024-02-21T05:19:57;25.65;;;8.00;;
31966;SDS011;18496;52.042;6.812;2024-02-21T05:22:01;27.63;;;9.32;;
31966;SDS011;18496;52.042;6.812;2024-02-21T05:24:04;17.98;;;9.18;;
31966;SDS011;18496;52.042;6.812;2024-02-21T05:26:08;22.10;;;8.52;;
31966;SDS011;18496;52.042;6.812;2024-02-21T05:28:12;20.98;;;8.70;;
31966;SDS011;18496;52.042;6.812;2024-02-21T05:30:16;21.95;;;7.90;;
31966;SDS011;18496;52.042;6.812;2024-02-21T05:32:20;22.48;;;8.02;;
31966;SDS011;18496;52.042;6.812;2024-02-21T05:34:23;27.30;;;7.57;;
31966;SDS011;18496;52.042;6.812;2024-02-21T05:36:28;20.73;;;8.20;;
31966;SDS011;18496;52.042;6.812;2024-02-21T05:38:32;26.23;;;9.18;;
31966;SDS011;18496;52.042;6.812;2024-02-21T05:40:35;17.88;;;8.20;;
31966;SDS011;18496;52.042;6.812;2024-02-21T05:42:39;29.50;;;8.55;;
31966;SDS011;18496;52.042;6.812;2024-02-21T05:44:43;33.20;;;8.95;;
31966;SDS011;18496;52.042;6.812;2024-02-21T05:46:46;19.60;;;7.85;;
31966;SDS011;18496;52.042;6.812;2024-02-21T05:48:50;22.27;;;8.05;;
31966;SDS011;18496;52.042;6.812;2024-02-21T05:50:54;22.70;;;8.02;;
31966;SDS011;18496;52.042;6.812;2024-02-21T05:52:58;25.75;;;9.48;;
31966;SDS011;18496;52.042;6.812;2024-02-21T05:55:01;17.55;;;8.10;;
31966;SDS011;18496;52.042;6.812;2024-02-21T05:57:07;24.30;;;8.52;;
31966;SDS011;18496;52.042;6.812;2024-02-21T05:59:11;19.33;;;8.57;;
31966;SDS011;18496;52.042;6.812;2024-02-21T06:01:15;25.63;;;8.48;;
31966;SDS011;18496;52.042;6.812;2024-02-21T06:03:18;23.63;;;8.07;;
31966;SDS011;18496;52.042;6.812;2024-02-21T06:05:22;17.63;;;8.02;;
31966;SDS011;18496;52.042;6.812;2024-02-21T06:07:26;19.70;;;7.70;;
31966;SDS011;18496;52.042;6.812;2024-02-21T06:09:30;23.08;;;9.15;;
31966;SDS011;18496;52.042;6.812;2024-02-21T06:11:35;20.80;;;8.43;;
31966;SDS011;18496;52.042;6.812;2024-02-21T06:13:40;21.90;;;9.15;;
31966;SDS011;18496;52.042;6.812;2024-02-21T06:15:44;23.83;;;8.85;;
31966;SDS011;18496;52.042;6.812;2024-02-21T06:17:48;24.40;;;9.70;;
31966;SDS011;18496;52.042;6.812;2024-02-21T06:19:51;22.95;;;8.82;;
31966;SDS011;18496;52.042;6.812;2024-02-21T06:21:55;24.50;;;8.98;;
31966;SDS011;18496;52.042;6.812;2024-02-21T06:23:59;24.55;;;9.68;;
31966;SDS011;18496;52.042;6.812;2024-02-21T06:26:02;23.33;;;8.85;;
31966;SDS011;18496;52.042;6.812;2024-02-21T06:28:06;31.02;;;10.73;;
31966;SDS011;18496;52.042;6.812;2024-02-21T06:30:10;20.98;;;9.63;;
31966;SDS011;18496;52.042;6.812;2024-02-21T06:32:14;23.83;;;9.27;;
31966;SDS011;18496;52.042;6.812;2024-02-21T06:34:18;22.85;;;9.18;;
31966;SDS011;18496;52.042;6.812;2024-02-21T06:36:22;16.20;;;8.70;;
31966;SDS011;18496;52.042;6.812;2024-02-21T06:38:25;20.17;;;9.52;;
31966;SDS011;18496;52.042;6.812;2024-02-21T06:40:29;33.20;;;10.20;;
31966;SDS011;18496;52.042;6.812;2024-02-21T06:42:41;27.45;;;9.57;;
31966;SDS011;18496;52.042;6.812;2024-02-21T06:44:45;22.20;;;9.63;;
31966;SDS011;18496;52.042;6.812;2024-02-21T06:46:48;21.00;;;9.60;;
31966;SDS011;18496;52.042;6.812;2024-02-21T06:48:52;28.67;;;9.45;;
31966;SDS011;18496;52.042;6.812;2024-02-21T06:50:56;26.05;;;9.63;;
31966;SDS011;18496;52.042;6.812;2024-02-21T06:53:00;21.23;;;9.55;;
31966;SDS011;18496;52.042;6.812;2024-02-21T06:55:03;23.52;;;8.57;;
31966;SDS011;18496;52.042;6.812;2024-02-21T06:57:07;26.52;;;9.27;;
31966;SDS011;18496;52.042;6.812;2024-02-21T06:59:11;24.42;;;8.63;;
31966;SDS011;18496;52.042;6.812;2024-02-21T07:01:18;22.42;;;8.55;;
31966;SDS011;18496;52.042;6.812;2024-02-21T07:03:22;25.83;;;8.75;;
31966;SDS011;18496;52.042;6.812;2024-02-21T07:05:27;21.90;;;8.10;;
31966;SDS011;18496;52.042;6.812;2024-02-21T07:07:31;23.95;;;9.27;;
31966;SDS011;18496;52.042;6.812;2024-02-21T07:09:34;23.73;;;8.35;;
31966;SDS011;18496;52.042;6.812;2024-02-21T07:11:39;15.88;;;7.80;;
31966;SDS011;18496;52.042;6.812;2024-02-21T07:13:42;23.42;;;8.70;;
31966;SDS011;18496;52.042;6.812;2024-02-21T07:15:46;25.35;;;7.80;;
31966;SDS011;18496;52.042;6.812;2024-02-21T07:17:51;17.23;;;7.85;;
31966;SDS011;18496;52.042;6.812;2024-02-21T07:19:54;22.00;;;7.53;;
31966;SDS011;18496;52.042;6.812;2024-02-21T07:21:59;19.42;;;7.82;;
31966;SDS011;18496;52.042;6.812;2024-02-21T07:24:04;24.85;;;8.73;;
31966;SDS011;18496;52.042;6.812;2024-02-21T07:26:08;22.45;;;8.57;;
31966;SDS011;18496;52.042;6.812;2024-02-21T07:28:12;20.25;;;7.78;;
31966;SDS011;18496;52.042;6.812;2024-02-21T07:30:17;14.75;;;7.32;;
31966;SDS011;18496;52.042;6.812;2024-02-21T07:32:21;20.10;;;7.55;;
31966;SDS011;18496;52.042;6.812;2024-02-21T07:34:24;21.77;;;7.28;;
31966;SDS011;18496;52.042;6.812;2024-02-21T07:36:29;20.02;;;8.32;;
31966;SDS011;18496;52.042;6.812;2024-02-21T07:38:33;16.45;;;7.72;;
31966;SDS011;18496;52.042;6.812;2024-02-21T07:40:37;20.80;;;7.55;;
31966;SDS011;18496;52.042;6.812;2024-02-21T07:42:41;20.88;;;7.85;;
31966;SDS011;18496;52.042;6.812;2024-02-21T07:44:45;18.85;;;7.35;;
31966;SDS011;18496;52.042;6.812;2024-02-21T07:46:49;21.67;;;7.65;;
31966;SDS011;18496;52.042;6.812;2024-02-21T07:48:52;19.92;;;7.63;;
31966;SDS011;18496;52.042;6.812;2024-02-21T07:50:56;18.20;;;6.95;;
31966;SDS011;18496;52.042;6.812;2024-02-21T07:53:00;21.33;;;7.47;;
31966;SDS011;18496;52.042;6.812;2024-02-21T07:55:04;21.33;;;7.93;;
31966;SDS011;18496;52.042;6.812;2024-02-21T07:57:08;22.92;;;7.90;;
31966;SDS011;18496;52.042;6.812;2024-02-21T07:59:11;18.02;;;7.25;;
31966;SDS011;18496;52.042;6.812;2024-02-21T08:01:20;27.08;;;8.05;;
31966;SDS011;18496;52.042;6.812;2024-02-21T08:03:24;16.95;;;7.03;;
31966;SDS011;18496;52.042;6.812;2024-02-21T08:05:29;15.57;;;7.25;;
31966;SDS011;18496;52.042;6.812;2024-02-21T08:07:33;18.80;;;7.70;;
31966;SDS011;18496;52.042;6.812;2024-02-21T08:09:39;17.90;;;6.85;;
31966;SDS011;18496;52.042;6.812;2024-02-21T08:11:43;19.35;;;7.57;;
31966;SDS011;18496;52.042;6.812;2024-02-21T08:13:46;19.20;;;6.90;;
31966;SDS011;18496;52.042;6.812;2024-02-21T08:15:50;16.67;;;6.82;;
31966;SDS011;18496;52.042;6.812;2024-02-21T08:17:55;25.52;;;7.28;;
31966;SDS011;18496;52.042;6.812;2024-02-21T08:20:03;19.67;;;6.97;;
31966;SDS011;18496;52.042;6.812;2024-02-21T08:22:07;14.80;;;6.68;;
31966;SDS011;18496;52.042;6.812;2024-02-21T08:24:11;21.60;;;7.30;;
31966;SDS011;18496;52.042;6.812;2024-02-21T08:26:15;16.33;;;6.65;;
31966;SDS011;18496;52.042;6.812;2024-02-21T08:28:18;19.63;;;6.35;;
31966;SDS011;18496;52.042;6.812;2024-02-21T08:30:22;21.02;;;6.82;;
31966;SDS011;18496;52.042;6.812;2024-02-21T08:32:26;23.75;;;7.50;;
31966;SDS011;18496;52.042;6.812;2024-02-21T08:34:31;17.75;;;6.65;;
31966;SDS011;18496;52.042;6.812;2024-02-21T08:36:37;16.02;;;5.90;;
31966;SDS011;18496;52.042;6.812;2024-02-21T08:38:41;18.92;;;7.45;;
31966;SDS011;18496;52.042;6.812;2024-02-21T08:40:44;18.30;;;6.72;;
31966;SDS011;18496;52.042;6.812;2024-02-21T08:42:48;20.52;;;7.25;;
31966;SDS011;18496;52.042;6.812;2024-02-21T08:44:52;22.13;;;6.78;;
31966;SDS011;18496;52.042;6.812;2024-02-21T08:46:56;24.67;;;6.80;;
31966;SDS011;18496;52.042;6.812;2024-02-21T08:49:00;26.10;;;7.38;;
31966;SDS011;18496;52.042;6.812;2024-02-21T08:51:03;14.95;;;7.00;;
31966;SDS011;18496;52.042;6.812;2024-02-21T08:53:08;19.27;;;7.10;;
31966;SDS011;18496;52.042;6.812;2024-02-21T08:55:12;15.57;;;6.88;;
31966;SDS011;18496;52.042;6.812;2024-02-21T08:57:16;19.27;;;6.57;;
31966;SDS011;18496;52.042;6.812;2024-02-21T08:59:22;14.52;;;6.30;;
31966;SDS011;18496;52.042;6.812;2024-02-21T09:01:26;19.30;;;7.47;;
31966;SDS011;18496;52.042;6.812;2024-02-21T09:03:33;14.13;;;5.95;;
31966;SDS011;18496;52.042;6.812;2024-02-21T09:05:37;17.77;;;6.78;;
31966;SDS011;18496;52.042;6.812;2024-02-21T09:07:40;19.00;;;7.00;;
31966;SDS011;18496;52.042;6.812;2024-02-21T09:09:44;17.30;;;6.70;;
31966;SDS011;18496;52.042;6.812;2024-02-21T09:11:48;17.80;;;7.28;;
31966;SDS011;18496;52.042;6.812;2024-02-21T09:13:51;15.20;;;6.68;;
31966;SDS011;18496;52.042;6.812;2024-02-21T09:15:55;21.80;;;6.85;;
31966;SDS011;18496;52.042;6.812;2024-02-21T09:17:59;17.83;;;6.45;;
31966;SDS011;18496;52.042;6.812;2024-02-21T09:20:03;17.23;;;5.90;;
31966;SDS011;18496;52.042;6.812;2024-02-21T09:22:07;20.50;;;7.55;;
31966;SDS011;18496;52.042;6.812;2024-02-21T09:24:10;20.83;;;7.10;;
31966;SDS011;18496;52.042;6.812;2024-02-21T09:26:14;19.45;;;7.68;;
31966;SDS011;18496;52.042;6.812;2024-02-21T09:28:20;20.38;;;7.80;;
31966;SDS011;18496;52.042;6.812;2024-02-21T09:30:23;14.13;;;7.03;;
31966;SDS011;18496;52.042;6.812;2024-02-21T09:32:27;16.63;;;7.75;;
31966;SDS011;18496;52.042;6.812;2024-02-21T09:34:31;17.35;;;6.68;;
31966;SDS011;18496;52.042;6.812;2024-02-21T09:36:34;15.50;;;7.63;;
31966;SDS011;18496;52.042;6.812;2024-02-21T09:38:39;20.55;;;7.63;;
31966;SDS011;18496;52.042;6.812;2024-02-21T09:40:43;20.70;;;8.20;;
31966;SDS011;18496;52.042;6.812;2024-02-21T09:42:47;19.63;;;7.50;;
31966;SDS011;18496;52.042;6.812;2024-02-21T09:44:51;23.88;;;8.13;;
31966;SDS011;18496;52.042;6.812;2024-02-21T09:47:02;16.73;;;7.18;;
31966;SDS011;18496;52.042;6.812;2024-02-21T09:51:41;20.55;;;8.02;;
31966;SDS011;18496;52.042;6.812;2024-02-21T09:53:45;17.90;;;7.43;;
31966;SDS011;18496;52.042;6.812;2024-02-21T09:55:51;17.58;;;7.13;;
31966;SDS011;18496;52.042;6.812;2024-02-21T09:57:55;15.80;;;7.78;;
31966;SDS011;18496;52.042;6.812;2024-02-21T10:00:01;16.75;;;6.88;;
31966;SDS011;18496;52.042;6.812;2024-02-21T10:02:15;16.30;;;7.10;;
31966;SDS011;18496;52.042;6.812;2024-02-21T10:04:20;18.10;;;7.00;;
31966;SDS011;18496;52.042;6.812;2024-02-21T10:06:24;14.82;;;6.47;;
31966;SDS011;18496;52.042;6.812;2024-02-21T10:08:28;19.98;;;6.63;;
31966;SDS011;18496;52.042;6.812;2024-02-21T10:10:40;18.60;;;6.22;;
31966;SDS011;18496;52.042;6.812;2024-02-21T10:12:47;16.77;;;7.07;;
31966;SDS011;18496;52.042;6.812;2024-02-21T10:15:04;14.35;;;7.22;;
31966;SDS011;18496;52.042;6.812;2024-02-21T10:17:14;17.45;;;6.20;;
31966;SDS011;18496;52.042;6.812;2024-02-21T10:19:21;15.40;;;6.70;;
31966;SDS011;18496;52.042;6.812;2024-02-21T10:21:25;15.52;;;6.07;;
31966;SDS011;18496;52.042;6.812;2024-02-21T10:23:29;14.18;;;5.68;;
31966;SDS011;18496;52.042;6.812;2024-02-21T10:25:33;12.45;;;6.07;;
31966;SDS011;18496;52.042;6.812;2024-02-21T10:27:38;9.68;;;5.70;;
31966;SDS011;18496;52.042;6.812;2024-02-21T10:29:42;16.00;;;5.63;;
31966;SDS011;18496;52.042;6.812;2024-02-21T10:31:52;14.18;;;5.93;;
31966;SDS011;18496;52.042;6.812;2024-02-21T10:34:06;17.48;;;5.90;;
31966;SDS011;18496;52.042;6.812;2024-02-21T10:36:10;13.20;;;6.28;;
31966;SDS011;18496;52.042;6.812;2024-02-21T10:38:14;14.77;;;5.40;;
31966;SDS011;18496;52.042;6.812;2024-02-21T10:40:17;13.10;;;5.10;;
31966;SDS011;18496;52.042;6.812;2024-02-21T10:42:21;13.68;;;5.07;;
31966;SDS011;18496;52.042;6.812;2024-02-21T10:44:26;12.32;;;5.05;;
31966;SDS011;18496;52.042;6.812;2024-02-21T10:46:32;16.05;;;5.88;;
31966;SDS011;18496;52.042;6.812;2024-02-21T10:48:43;11.65;;;5.43;;
31966;SDS011;18496;52.042;6.812;2024-02-21T10:55:35;14.43;;;5.90;;
31966;SDS011;18496;52.042;6.812;2024-02-21T10:57:43;11.00;;;4.68;;
31966;SDS011;18496;52.042;6.812;2024-02-21T10:59:48;9.27;;;5.10;;
31966;SDS011;18496;52.042;6.812;2024-02-21T11:01:53;11.18;;;4.70;;
31966;SDS011;18496;52.042;6.812;2024-02-21T11:03:58;22.52;;;10.10;;
31966;SDS011;18496;52.042;6.812;2024-02-21T11:06:04;25.10;;;9.88;;
31966;SDS011;18496;52.042;6.812;2024-02-21T11:08:09;14.05;;;5.72;;
31966;SDS011;18496;52.042;6.812;2024-02-21T11:10:26;13.32;;;5.95;;
31966;SDS011;18496;52.042;6.812;2024-02-21T11:12:32;18.13;;;7.55;;
31966;SDS011;18496;52.042;6.812;2024-02-21T11:14:37;11.30;;;5.55;;
31966;SDS011;18496;52.042;6.812;2024-02-21T11:16:42;13.50;;;7.65;;
31966;SDS011;18496;52.042;6.812;2024-02-21T11:18:46;17.50;;;6.30;;
31966;SDS011;18496;52.042;6.812;2024-02-21T11:20:50;17.10;;;8.77;;
31966;SDS011;18496;52.042;6.812;2024-02-21T11:22:54;50.83;;;20.25;;
31966;SDS011;18496;52.042;6.812;2024-02-21T11:25:07;22.05;;;8.23;;
31966;SDS011;18496;52.042;6.812;2024-02-21T11:27:21;17.17;;;5.88;;
31966;SDS011;18496;52.042;6.812;2024-02-21T11:29:28;13.40;;;7.22;;
31966;SDS011;18496;52.042;6.812;2024-02-21T11:31:40;13.85;;;7.30;;
31966;SDS011;18496;52.042;6.812;2024-02-21T11:33:47;14.38;;;7.15;;
31966;SDS011;18496;52.042;6.812;2024-02-21T11:35:51;16.75;;;6.60;;
31966;SDS011;18496;52.042;6.812;2024-02-21T11:37:56;16.85;;;5.82;;
31966;SDS011;18496;52.042;6.812;2024-02-21T11:40:00;10.95;;;5.07;;
31966;SDS011;18496;52.042;6.812;2024-02-21T11:42:04;14.00;;;5.72;;
31966;SDS011;18496;52.042;6.812;2024-02-21T11:44:10;13.95;;;6.05;;
31966;SDS011;18496;52.042;6.812;2024-02-21T11:46:14;13.82;;;5.85;;
31966;SDS011;18496;52.042;6.812;2024-02-21T11:48:18;14.73;;;5.53;;
31966;SDS011;18496;52.042;6.812;2024-02-21T11:50:22;15.48;;;5.55;;
31966;SDS011;18496;52.042;6.812;2024-02-21T11:52:27;16.50;;;6.43;;
31966;SDS011;18496;52.042;6.812;2024-02-21T11:54:31;15.05;;;6.10;;
31966;SDS011;18496;52.042;6.812;2024-02-21T11:56:35;14.90;;;6.05;;
31966;SDS011;18496;52.042;6.812;2024-02-21T11:58:38;15.85;;;5.35;;
31966;SDS011;18496;52.042;6.812;2024-02-21T12:00:42;13.43;;;6.05;;
31966;SDS011;18496;52.042;6.812;2024-02-21T12:02:46;14.77;;;5.55;;
31966;SDS011;18496;52.042;6.812;2024-02-21T12:04:50;19.95;;;6.25;;
31966;SDS011;18496;52.042;6.812;2024-02-21T12:06:54;10.85;;;4.47;;
31966;SDS011;18496;52.042;6.812;2024-02-21T12:08:59;13.32;;;5.32;;
31966;SDS011;18496;52.042;6.812;2024-02-21T12:11:04;7.75;;;4.38;;
31966;SDS011;18496;52.042;6.812;2024-02-21T12:13:07;13.13;;;4.82;;
31966;SDS011;18496;52.042;6.812;2024-02-21T12:15:12;19.25;;;4.85;;
31966;SDS011;18496;52.042;6.812;2024-02-21T12:17:16;16.10;;;4.95;;
31966;SDS011;18496;52.042;6.812;2024-02-21T12:19:20;12.82;;;4.00;;
31966;SDS011;18496;52.042;6.812;2024-02-21T12:21:31;9.35;;;5.10;;
31966;SDS011;18496;52.042;6.812;2024-02-21T12:23:38;9.05;;;4.22;;